createdAt,value
2023-12-27T00:00:03.249Z,1016.5
2023-12-27T00:15:02.667Z,1016.7
2023-12-27T00:30:03.212Z,1016.9
2023-12-27T00:45:02.511Z,1016.9
2023-12-27T01:00:03.030Z,1017.0
2023-12-27T01:15:02.296Z,1016.9
2023-12-27T01:30:02.759Z,1016.7
2023-12-27T01:45:03.243Z,1016.8
2023-12-27T02:00:02.743Z,1016.9
2023-12-27T02:15:03.207Z,1016.9
2023-12-27T02:30:02.505Z,1016.6
2023-12-27T02:45:02.944Z,1016.9
2023-12-27T03:00:02.404Z,1016.6
2023-12-27T03:15:02.842Z,1016.3
2023-12-27T03:30:02.256Z,1016.2
2023-12-27T03:45:02.726Z,1016.2
2023-12-27T04:00:03.229Z,1016.2
2023-12-27T04:15:02.633Z,1016.4
2023-12-27T04:30:03.276Z,1016.2
2023-12-27T04:45:02.459Z,1016.2
2023-12-27T05:00:02.865Z,1016.1
2023-12-27T05:15:02.274Z,1016.0
2023-12-27T05:30:02.808Z,1016.1
2023-12-27T05:45:02.267Z,1015.9
2023-12-27T06:00:02.600Z,1016.0
2023-12-27T06:15:03.270Z,1015.9
2023-12-27T06:30:02.537Z,1015.7
2023-12-27T06:45:03.005Z,1015.4
2023-12-27T07:00:02.566Z,1015.6
2023-12-27T07:30:02.355Z,1015.4
2023-12-27T07:45:02.693Z,1014.9
2023-12-27T08:00:03.331Z,1014.9
2023-12-27T08:15:02.628Z,1014.7
2023-12-27T08:30:03.043Z,1014.5
2023-12-27T08:45:02.570Z,1014.3
2023-12-27T09:00:02.973Z,1014.3
2023-12-27T09:15:02.345Z,1014.2
2023-12-27T09:30:02.836Z,1014.1
2023-12-27T09:45:02.461Z,1014.0
2023-12-27T10:00:02.688Z,1013.7
2023-12-27T10:15:03.317Z,1013.4
2023-12-27T10:30:02.606Z,1013.5
2023-12-27T10:45:03.028Z,1012.7
2023-12-27T11:00:02.589Z,1012.6
2023-12-27T11:15:02.926Z,1012.2
2023-12-27T11:30:02.374Z,1011.9
2023-12-27T11:45:02.792Z,1011.9
2023-12-27T12:00:02.377Z,1011.4
2023-12-27T12:15:02.671Z,1011.2
2023-12-27T12:30:03.261Z,1010.9
2023-12-27T12:45:02.615Z,1010.2
2023-12-27T13:00:03.059Z,1010.1
2023-12-27T13:15:02.482Z,1009.8
2023-12-27T13:30:02.844Z,1009.6
2023-12-27T13:45:02.542Z,1009.2
2023-12-27T14:15:02.281Z,1008.8
2023-12-27T14:30:02.539Z,1008.4
2023-12-27T14:45:03.109Z,1008.4
2023-12-27T15:00:02.465Z,1008.1
2023-12-27T15:15:02.878Z,1007.6
2023-12-27T15:30:02.355Z,1007.5
2023-12-27T15:45:02.722Z,1007.5
2023-12-27T16:00:03.358Z,1007.3
2023-12-27T16:15:02.617Z,1007.0
2023-12-27T16:30:03.066Z,1006.9
2023-12-27T16:45:02.466Z,1006.6
2023-12-27T17:00:02.935Z,1006.3
2023-12-27T17:15:02.356Z,1005.9
2023-12-27T17:30:02.814Z,1005.6
2023-12-27T17:45:03.380Z,1005.4
2023-12-27T18:00:02.689Z,1005.1
2023-12-27T18:15:03.328Z,1004.5
2023-12-27T18:30:02.553Z,1004.4
2023-12-27T18:45:02.983Z,1004.0
2023-12-27T19:00:02.462Z,1003.7
2023-12-27T19:15:03.513Z,1003.8
2023-12-27T19:30:03.395Z,1003.7
2023-12-27T19:45:02.773Z,1003.3
2023-12-27T20:00:03.409Z,1003.5
2023-12-27T20:15:02.657Z,1003.7
2023-12-27T20:30:03.054Z,1003.5
2023-12-27T20:45:02.514Z,1003.3
2023-12-27T21:00:02.947Z,1002.7
2023-12-27T21:15:02.389Z,1002.9
2023-12-27T21:30:02.813Z,1002.9
2023-12-27T21:45:02.423Z,1003.1
2023-12-27T22:00:02.697Z,1003.3
2023-12-27T22:15:03.160Z,1003.5
2023-12-27T22:30:02.583Z,1003.5
2023-12-27T22:45:03.021Z,1003.5
2023-12-27T23:00:02.546Z,1003.6
2023-12-27T23:15:02.869Z,1003.6
2023-12-27T23:30:02.489Z,1003.6
2023-12-27T23:45:02.701Z,1003.6
